sensor_id;sensor_type;location;lat;lon;timestamp;temperature;humidity
23827;DHT22;12094;50.822;4.376;2024-03-25T00:01:34;6.40;99.90
23827;DHT22;12094;50.822;4.376;2024-03-25T00:04:04;6.40;99.90
23827;DHT22;12094;50.822;4.376;2024-03-25T00:06:32;6.50;99.90
23827;DHT22;12094;50.822;4.376;2024-03-25T00:09:01;6.50;99.90
23827;DHT22;12094;50.822;4.376;2024-03-25T00:11:28;6.50;99.90
23827;DHT22;12094;50.822;4.376;2024-03-25T00:13:55;6.50;99.90
23827;DHT22;12094;50.822;4.376;2024-03-25T00:16:22;6.60;99.90
23827;DHT22;12094;50.822;4.376;2024-03-25T00:18:48;6.40;99.90
23827;DHT22;12094;50.822;4.376;2024-03-25T00:21:15;6.30;99.90
23827;DHT22;12094;50.822;4.376;2024-03-25T00:23:41;6.40;99.90
23827;DHT22;12094;50.822;4.376;2024-03-25T00:26:07;6.30;99.90
23827;DHT22;12094;50.822;4.376;2024-03-25T00:28:34;6.30;99.90
23827;DHT22;12094;50.822;4.376;2024-03-25T00:31:01;6.20;99.90
23827;DHT22;12094;50.822;4.376;2024-03-25T00:33:28;6.20;99.90
23827;DHT22;12094;50.822;4.376;2024-03-25T00:35:58;6.20;99.90
23827;DHT22;12094;50.822;4.376;2024-03-25T00:38:27;6.20;99.90
23827;DHT22;12094;50.822;4.376;2024-03-25T00:40:53;6.40;99.90
23827;DHT22;12094;50.822;4.376;2024-03-25T00:43:20;6.40;99.90
23827;DHT22;12094;50.822;4.376;2024-03-25T00:45:46;6.30;99.90
23827;DHT22;12094;50.822;4.376;2024-03-25T00:48:12;6.20;99.90
23827;DHT22;12094;50.822;4.376;2024-03-25T00:50:38;6.10;99.90
23827;DHT22;12094;50.822;4.376;2024-03-25T00:53:13;5.90;99.90
23827;DHT22;12094;50.822;4.376;2024-03-25T00:55:44;6.00;99.90
23827;DHT22;12094;50.822;4.376;2024-03-25T00:58:11;6.00;99.90
23827;DHT22;12094;50.822;4.376;2024-03-25T01:00:53;6.00;99.90
23827;DHT22;12094;50.822;4.376;2024-03-25T01:03:22;6.00;99.90
23827;DHT22;12094;50.822;4.376;2024-03-25T01:05:49;6.00;99.90
23827;DHT22;12094;50.822;4.376;2024-03-25T01:08:16;6.00;99.90
23827;DHT22;12094;50.822;4.376;2024-03-25T01:10:42;6.00;99.90
23827;DHT22;12094;50.822;4.376;2024-03-25T01:16:49;6.00;99.90
23827;DHT22;12094;50.822;4.376;2024-03-25T01:19:17;6.10;99.90
23827;DHT22;12094;50.822;4.376;2024-03-25T01:21:43;6.00;99.90
23827;DHT22;12094;50.822;4.376;2024-03-25T01:24:11;6.00;99.90
23827;DHT22;12094;50.822;4.376;2024-03-25T01:26:38;6.00;99.90
23827;DHT22;12094;50.822;4.376;2024-03-25T01:29:04;6.00;99.90
23827;DHT22;12094;50.822;4.376;2024-03-25T01:39:33;6.00;99.90
23827;DHT22;12094;50.822;4.376;2024-03-25T01:41:59;6.10;99.90
23827;DHT22;12094;50.822;4.376;2024-03-25T01:44:26;6.00;99.90
23827;DHT22;12094;50.822;4.376;2024-03-25T01:46:57;6.00;99.90
23827;DHT22;12094;50.822;4.376;2024-03-25T01:49:25;6.00;99.90
23827;DHT22;12094;50.822;4.376;2024-03-25T01:55:05;6.00;99.90
23827;DHT22;12094;50.822;4.376;2024-03-25T01:57:51;6.00;99.90
23827;DHT22;12094;50.822;4.376;2024-03-25T02:04:18;5.90;99.90
23827;DHT22;12094;50.822;4.376;2024-03-25T02:06:46;5.90;99.90
23827;DHT22;12094;50.822;4.376;2024-03-25T02:09:15;5.90;99.90
23827;DHT22;12094;50.822;4.376;2024-03-25T02:11:47;5.90;99.90
23827;DHT22;12094;50.822;4.376;2024-03-25T02:14:14;5.90;99.90
23827;DHT22;12094;50.822;4.376;2024-03-25T02:16:41;6.00;99.90
23827;DHT22;12094;50.822;4.376;2024-03-25T02:21:38;5.90;99.90
23827;DHT22;12094;50.822;4.376;2024-03-25T02:24:05;5.90;99.90
23827;DHT22;12094;50.822;4.376;2024-03-25T02:29:04;5.90;99.90
23827;DHT22;12094;50.822;4.376;2024-03-25T02:31:33;5.90;99.90
23827;DHT22;12094;50.822;4.376;2024-03-25T02:33:59;5.90;99.90
23827;DHT22;12094;50.822;4.376;2024-03-25T02:36:27;5.90;99.90
23827;DHT22;12094;50.822;4.376;2024-03-25T02:38:56;5.90;99.90
23827;DHT22;12094;50.822;4.376;2024-03-25T02:41:23;5.90;99.90
23827;DHT22;12094;50.822;4.376;2024-03-25T02:43:50;5.90;99.90
23827;DHT22;12094;50.822;4.376;2024-03-25T02:46:16;5.90;99.90
23827;DHT22;12094;50.822;4.376;2024-03-25T02:48:45;5.90;99.90
23827;DHT22;12094;50.822;4.376;2024-03-25T02:51:11;5.90;99.90
23827;DHT22;12094;50.822;4.376;2024-03-25T02:53:39;5.80;99.90
23827;DHT22;12094;50.822;4.376;2024-03-25T02:56:05;5.80;99.90
23827;DHT22;12094;50.822;4.376;2024-03-25T02:58:31;5.70;99.90
23827;DHT22;12094;50.822;4.376;2024-03-25T03:00:59;5.80;99.90
23827;DHT22;12094;50.822;4.376;2024-03-25T03:03:26;5.80;99.90
23827;DHT22;12094;50.822;4.376;2024-03-25T03:05:55;5.80;99.90
23827;DHT22;12094;50.822;4.376;2024-03-25T03:08:22;5.80;99.90
23827;DHT22;12094;50.822;4.376;2024-03-25T03:10:50;5.80;99.90
23827;DHT22;12094;50.822;4.376;2024-03-25T03:15:47;5.80;99.90
23827;DHT22;12094;50.822;4.376;2024-03-25T03:18:13;5.80;99.90
23827;DHT22;12094;50.822;4.376;2024-03-25T03:20:39;5.90;99.90
23827;DHT22;12094;50.822;4.376;2024-03-25T03:23:07;5.90;99.90
23827;DHT22;12094;50.822;4.376;2024-03-25T03:25:33;6.00;99.90
23827;DHT22;12094;50.822;4.376;2024-03-25T03:30:49;6.00;99.90
23827;DHT22;12094;50.822;4.376;2024-03-25T03:33:17;6.10;99.90
23827;DHT22;12094;50.822;4.376;2024-03-25T03:35:44;6.10;99.90
23827;DHT22;12094;50.822;4.376;2024-03-25T03:38:19;6.20;99.90
23827;DHT22;12094;50.822;4.376;2024-03-25T03:43:24;6.20;99.90
23827;DHT22;12094;50.822;4.376;2024-03-25T03:45:53;6.20;99.90
23827;DHT22;12094;50.822;4.376;2024-03-25T03:48:20;6.20;99.90
23827;DHT22;12094;50.822;4.376;2024-03-25T03:50:46;6.20;99.90
23827;DHT22;12094;50.822;4.376;2024-03-25T03:53:15;6.30;99.90
23827;DHT22;12094;50.822;4.376;2024-03-25T03:55:42;6.30;99.90
23827;DHT22;12094;50.822;4.376;2024-03-25T03:58:12;6.30;99.90
23827;DHT22;12094;50.822;4.376;2024-03-25T04:00:38;6.30;99.90
23827;DHT22;12094;50.822;4.376;2024-03-25T04:03:06;6.20;99.90
23827;DHT22;12094;50.822;4.376;2024-03-25T04:05:35;6.20;99.90
23827;DHT22;12094;50.822;4.376;2024-03-25T04:08:01;6.20;99.90
23827;DHT22;12094;50.822;4.376;2024-03-25T04:10:28;6.20;99.90
23827;DHT22;12094;50.822;4.376;2024-03-25T04:12:54;6.20;99.90
23827;DHT22;12094;50.822;4.376;2024-03-25T04:15:24;6.20;99.90
23827;DHT22;12094;50.822;4.376;2024-03-25T04:17:53;6.20;99.90
23827;DHT22;12094;50.822;4.376;2024-03-25T04:20:21;6.20;99.90
23827;DHT22;12094;50.822;4.376;2024-03-25T04:22:48;6.20;99.90
23827;DHT22;12094;50.822;4.376;2024-03-25T04:25:17;6.20;99.90
23827;DHT22;12094;50.822;4.376;2024-03-25T04:27:43;6.20;99.90
23827;DHT22;12094;50.822;4.376;2024-03-25T04:30:16;6.10;99.90
23827;DHT22;12094;50.822;4.376;2024-03-25T04:32:43;6.10;99.90
23827;DHT22;12094;50.822;4.376;2024-03-25T04:35:12;6.00;99.90
23827;DHT22;12094;50.822;4.376;2024-03-25T04:37:38;6.00;99.90
23827;DHT22;12094;50.822;4.376;2024-03-25T04:40:04;6.00;99.90
23827;DHT22;12094;50.822;4.376;2024-03-25T04:42:33;6.00;99.90
23827;DHT22;12094;50.822;4.376;2024-03-25T04:44:59;6.00;99.90
23827;DHT22;12094;50.822;4.376;2024-03-25T04:47:25;6.00;99.90
23827;DHT22;12094;50.822;4.376;2024-03-25T04:49:51;5.90;99.90
23827;DHT22;12094;50.822;4.376;2024-03-25T04:55:13;6.00;99.90
23827;DHT22;12094;50.822;4.376;2024-03-25T04:57:42;6.00;99.90
23827;DHT22;12094;50.822;4.376;2024-03-25T05:00:11;5.90;99.90
23827;DHT22;12094;50.822;4.376;2024-03-25T05:05:06;6.00;99.90
23827;DHT22;12094;50.822;4.376;2024-03-25T05:07:37;6.00;99.90
23827;DHT22;12094;50.822;4.376;2024-03-25T05:15:05;5.90;99.90
23827;DHT22;12094;50.822;4.376;2024-03-25T05:17:33;5.90;99.90
23827;DHT22;12094;50.822;4.376;2024-03-25T05:25:39;5.80;99.90
23827;DHT22;12094;50.822;4.376;2024-03-25T05:28:05;5.80;99.90
23827;DHT22;12094;50.822;4.376;2024-03-25T05:30:37;5.90;99.90
23827;DHT22;12094;50.822;4.376;2024-03-25T05:33:04;5.90;99.90
23827;DHT22;12094;50.822;4.376;2024-03-25T05:35:30;5.90;99.90
23827;DHT22;12094;50.822;4.376;2024-03-25T05:37:59;6.00;99.90
23827;DHT22;12094;50.822;4.376;2024-03-25T05:40:26;6.00;99.90
23827;DHT22;12094;50.822;4.376;2024-03-25T05:42:54;6.00;99.90
23827;DHT22;12094;50.822;4.376;2024-03-25T05:45:20;6.10;99.90
23827;DHT22;12094;50.822;4.376;2024-03-25T05:47:49;6.10;99.90
23827;DHT22;12094;50.822;4.376;2024-03-25T05:50:15;6.00;99.90
23827;DHT22;12094;50.822;4.376;2024-03-25T05:52:42;6.10;99.90
23827;DHT22;12094;50.822;4.376;2024-03-25T05:55:10;6.00;99.90
23827;DHT22;12094;50.822;4.376;2024-03-25T05:57:37;6.00;99.90
23827;DHT22;12094;50.822;4.376;2024-03-25T06:00:04;6.00;99.90
23827;DHT22;12094;50.822;4.376;2024-03-25T06:02:41;6.00;99.90
23827;DHT22;12094;50.822;4.376;2024-03-25T06:07:38;5.90;99.90
23827;DHT22;12094;50.822;4.376;2024-03-25T06:10:05;6.00;99.90
23827;DHT22;12094;50.822;4.376;2024-03-25T06:12:34;6.00;99.90
23827;DHT22;12094;50.822;4.376;2024-03-25T06:15:02;6.00;99.90
23827;DHT22;12094;50.822;4.376;2024-03-25T06:17:30;6.00;99.90
23827;DHT22;12094;50.822;4.376;2024-03-25T06:19:56;6.10;99.90
23827;DHT22;12094;50.822;4.376;2024-03-25T06:22:23;6.00;99.90
23827;DHT22;12094;50.822;4.376;2024-03-25T06:24:50;6.10;99.90
23827;DHT22;12094;50.822;4.376;2024-03-25T06:27:16;6.10;99.90
23827;DHT22;12094;50.822;4.376;2024-03-25T06:29:42;6.20;99.90
23827;DHT22;12094;50.822;4.376;2024-03-25T06:32:10;6.20;99.90
23827;DHT22;12094;50.822;4.376;2024-03-25T06:44:03;6.30;99.90
23827;DHT22;12094;50.822;4.376;2024-03-25T06:46:31;6.30;99.90
23827;DHT22;12094;50.822;4.376;2024-03-25T06:48:58;6.40;99.90
23827;DHT22;12094;50.822;4.376;2024-03-25T06:51:25;6.40;99.90
23827;DHT22;12094;50.822;4.376;2024-03-25T06:53:53;6.40;99.90
23827;DHT22;12094;50.822;4.376;2024-03-25T06:56:19;6.50;99.90
23827;DHT22;12094;50.822;4.376;2024-03-25T06:58:46;6.50;99.90
23827;DHT22;12094;50.822;4.376;2024-03-25T07:01:12;6.50;99.90
23827;DHT22;12094;50.822;4.376;2024-03-25T07:03:38;6.60;99.90
23827;DHT22;12094;50.822;4.376;2024-03-25T07:08:34;6.60;99.90
23827;DHT22;12094;50.822;4.376;2024-03-25T07:11:06;6.60;99.90
23827;DHT22;12094;50.822;4.376;2024-03-25T07:13:33;6.60;99.90
23827;DHT22;12094;50.822;4.376;2024-03-25T07:16:04;6.60;99.90
23827;DHT22;12094;50.822;4.376;2024-03-25T07:18:31;6.70;99.90
23827;DHT22;12094;50.822;4.376;2024-03-25T07:20:58;6.70;99.90
23827;DHT22;12094;50.822;4.376;2024-03-25T07:23:28;6.80;99.90
23827;DHT22;12094;50.822;4.376;2024-03-25T07:25:56;6.70;99.90
23827;DHT22;12094;50.822;4.376;2024-03-25T07:32:17;6.80;99.90
23827;DHT22;12094;50.822;4.376;2024-03-25T07:34:44;6.90;99.90
23827;DHT22;12094;50.822;4.376;2024-03-25T07:37:15;6.90;99.90
23827;DHT22;12094;50.822;4.376;2024-03-25T07:39:41;6.90;99.90
23827;DHT22;12094;50.822;4.376;2024-03-25T07:42:07;6.90;99.90
23827;DHT22;12094;50.822;4.376;2024-03-25T07:44:34;7.10;99.90
23827;DHT22;12094;50.822;4.376;2024-03-25T07:47:04;7.10;99.90
23827;DHT22;12094;50.822;4.376;2024-03-25T07:49:31;7.30;99.90
23827;DHT22;12094;50.822;4.376;2024-03-25T07:51:57;7.30;99.90
23827;DHT22;12094;50.822;4.376;2024-03-25T07:54:23;7.30;99.90
23827;DHT22;12094;50.822;4.376;2024-03-25T07:56:49;7.40;99.90
23827;DHT22;12094;50.822;4.376;2024-03-25T07:59:15;7.50;99.90
23827;DHT22;12094;50.822;4.376;2024-03-25T08:01:42;7.50;99.90
23827;DHT22;12094;50.822;4.376;2024-03-25T08:04:11;7.60;99.90
23827;DHT22;12094;50.822;4.376;2024-03-25T08:06:38;7.60;99.90
23827;DHT22;12094;50.822;4.376;2024-03-25T08:09:05;7.70;99.90
23827;DHT22;12094;50.822;4.376;2024-03-25T08:11:32;7.80;99.90
23827;DHT22;12094;50.822;4.376;2024-03-25T08:13:59;7.80;99.90
23827;DHT22;12094;50.822;4.376;2024-03-25T08:16:27;7.70;99.90
23827;DHT22;12094;50.822;4.376;2024-03-25T08:18:53;7.60;99.90
23827;DHT22;12094;50.822;4.376;2024-03-25T08:21:20;7.60;99.90
23827;DHT22;12094;50.822;4.376;2024-03-25T08:23:46;7.70;99.90
23827;DHT22;12094;50.822;4.376;2024-03-25T08:29:02;7.90;99.90
23827;DHT22;12094;50.822;4.376;2024-03-25T08:34:01;8.00;99.90
23827;DHT22;12094;50.822;4.376;2024-03-25T08:36:27;8.20;99.90
23827;DHT22;12094;50.822;4.376;2024-03-25T08:38:56;8.20;99.90
23827;DHT22;12094;50.822;4.376;2024-03-25T08:41:25;8.20;99.90
23827;DHT22;12094;50.822;4.376;2024-03-25T08:43:53;8.30;99.90
23827;DHT22;12094;50.822;4.376;2024-03-25T08:48:50;8.50;99.90
23827;DHT22;12094;50.822;4.376;2024-03-25T08:51:16;8.60;99.90
23827;DHT22;12094;50.822;4.376;2024-03-25T08:53:46;8.70;99.90
23827;DHT22;12094;50.822;4.376;2024-03-25T08:56:18;8.70;99.90
23827;DHT22;12094;50.822;4.376;2024-03-25T08:58:45;8.60;99.90
23827;DHT22;12094;50.822;4.376;2024-03-25T09:01:11;8.70;99.90
23827;DHT22;12094;50.822;4.376;2024-03-25T09:03:41;8.80;99.90
23827;DHT22;12094;50.822;4.376;2024-03-25T09:12:48;9.10;99.90
23827;DHT22;12094;50.822;4.376;2024-03-25T09:15:15;9.10;99.90
23827;DHT22;12094;50.822;4.376;2024-03-25T09:17:42;9.20;99.90
23827;DHT22;12094;50.822;4.376;2024-03-25T09:20:09;9.20;99.90
23827;DHT22;12094;50.822;4.376;2024-03-25T09:22:49;9.30;99.90
23827;DHT22;12094;50.822;4.376;2024-03-25T09:25:16;9.60;99.90
23827;DHT22;12094;50.822;4.376;2024-03-25T09:27:56;9.60;99.90
23827;DHT22;12094;50.822;4.376;2024-03-25T09:30:22;9.80;99.90
23827;DHT22;12094;50.822;4.376;2024-03-25T09:32:49;9.90;99.90
23827;DHT22;12094;50.822;4.376;2024-03-25T09:35:16;10.00;99.90
23827;DHT22;12094;50.822;4.376;2024-03-25T09:37:44;10.10;99.90
23827;DHT22;12094;50.822;4.376;2024-03-25T09:40:11;10.20;99.90
23827;DHT22;12094;50.822;4.376;2024-03-25T09:42:57;10.30;99.90
23827;DHT22;12094;50.822;4.376;2024-03-25T09:45:25;10.40;99.90
23827;DHT22;12094;50.822;4.376;2024-03-25T09:47:57;10.30;99.90
23827;DHT22;12094;50.822;4.376;2024-03-25T09:53:00;10.30;99.90
23827;DHT22;12094;50.822;4.376;2024-03-25T09:55:26;10.30;99.90
23827;DHT22;12094;50.822;4.376;2024-03-25T09:57:52;10.40;99.90
23827;DHT22;12094;50.822;4.376;2024-03-25T10:00:19;10.50;99.90
23827;DHT22;12094;50.822;4.376;2024-03-25T10:02:48;10.50;99.90
23827;DHT22;12094;50.822;4.376;2024-03-25T10:05:17;10.50;99.90
23827;DHT22;12094;50.822;4.376;2024-03-25T10:07:46;10.50;99.90
23827;DHT22;12094;50.822;4.376;2024-03-25T10:10:12;10.50;99.90
23827;DHT22;12094;50.822;4.376;2024-03-25T10:12:41;10.50;99.90
23827;DHT22;12094;50.822;4.376;2024-03-25T10:15:07;10.50;99.90
23827;DHT22;12094;50.822;4.376;2024-03-25T10:17:33;10.60;99.90
23827;DHT22;12094;50.822;4.376;2024-03-25T10:20:06;10.70;99.90
23827;DHT22;12094;50.822;4.376;2024-03-25T10:22:41;10.80;99.90
23827;DHT22;12094;50.822;4.376;2024-03-25T10:25:18;10.80;99.90
23827;DHT22;12094;50.822;4.376;2024-03-25T10:27:52;10.70;99.90
23827;DHT22;12094;50.822;4.376;2024-03-25T10:30:18;10.80;99.90
23827;DHT22;12094;50.822;4.376;2024-03-25T10:35:14;10.90;99.90
23827;DHT22;12094;50.822;4.376;2024-03-25T10:37:40;11.00;99.90
23827;DHT22;12094;50.822;4.376;2024-03-25T10:40:07;11.40;99.90
23827;DHT22;12094;50.822;4.376;2024-03-25T10:42:33;11.60;99.90
23827;DHT22;12094;50.822;4.376;2024-03-25T10:45:03;11.60;99.90
23827;DHT22;12094;50.822;4.376;2024-03-25T10:47:29;11.50;99.90
23827;DHT22;12094;50.822;4.376;2024-03-25T10:49:56;11.30;99.90
23827;DHT22;12094;50.822;4.376;2024-03-25T10:52:26;11.40;99.90
23827;DHT22;12094;50.822;4.376;2024-03-25T10:54:54;11.50;99.90
23827;DHT22;12094;50.822;4.376;2024-03-25T10:57:21;11.70;99.90
23827;DHT22;12094;50.822;4.376;2024-03-25T10:59:49;11.70;99.90
23827;DHT22;12094;50.822;4.376;2024-03-25T11:02:18;11.90;99.90
23827;DHT22;12094;50.822;4.376;2024-03-25T11:04:47;12.20;99.90
23827;DHT22;12094;50.822;4.376;2024-03-25T11:07:15;12.20;99.90
23827;DHT22;12094;50.822;4.376;2024-03-25T11:09:42;12.30;99.90
23827;DHT22;12094;50.822;4.376;2024-03-25T11:12:12;12.50;99.90
23827;DHT22;12094;50.822;4.376;2024-03-25T11:14:41;12.50;99.90
23827;DHT22;12094;50.822;4.376;2024-03-25T11:17:16;12.70;99.90
23827;DHT22;12094;50.822;4.376;2024-03-25T11:19:42;13.30;99.90
23827;DHT22;12094;50.822;4.376;2024-03-25T11:22:09;13.90;99.90
23827;DHT22;12094;50.822;4.376;2024-03-25T11:24:43;13.60;99.90
23827;DHT22;12094;50.822;4.376;2024-03-25T11:27:09;13.60;99.90
23827;DHT22;12094;50.822;4.376;2024-03-25T11:29:35;13.90;99.80
23827;DHT22;12094;50.822;4.376;2024-03-25T11:32:05;14.10;99.90
23827;DHT22;12094;50.822;4.376;2024-03-25T11:34:35;14.30;99.20
23827;DHT22;12094;50.822;4.376;2024-03-25T11:37:01;14.00;99.90
23827;DHT22;12094;50.822;4.376;2024-03-25T11:39:27;13.50;98.00
23827;DHT22;12094;50.822;4.376;2024-03-25T11:41:54;13.30;97.00
23827;DHT22;12094;50.822;4.376;2024-03-25T11:44:21;13.30;96.10
23827;DHT22;12094;50.822;4.376;2024-03-25T11:46:52;13.60;96.30
23827;DHT22;12094;50.822;4.376;2024-03-25T11:49:20;14.30;95.70
23827;DHT22;12094;50.822;4.376;2024-03-25T11:51:46;14.20;94.20
23827;DHT22;12094;50.822;4.376;2024-03-25T11:54:14;13.90;94.70
23827;DHT22;12094;50.822;4.376;2024-03-25T11:56:41;13.90;92.80
23827;DHT22;12094;50.822;4.376;2024-03-25T11:59:09;13.40;94.10
23827;DHT22;12094;50.822;4.376;2024-03-25T12:01:37;13.30;95.40
23827;DHT22;12094;50.822;4.376;2024-03-25T12:04:09;13.20;96.10
23827;DHT22;12094;50.822;4.376;2024-03-25T12:06:38;13.00;96.80
23827;DHT22;12094;50.822;4.376;2024-03-25T12:09:06;12.80;97.50
23827;DHT22;12094;50.822;4.376;2024-03-25T12:11:53;13.10;97.60
23827;DHT22;12094;50.822;4.376;2024-03-25T12:14:21;13.10;97.00
23827;DHT22;12094;50.822;4.376;2024-03-25T12:16:50;13.00;97.10
23827;DHT22;12094;50.822;4.376;2024-03-25T12:19:18;13.10;95.90
23827;DHT22;12094;50.822;4.376;2024-03-25T12:21:46;13.30;95.30
23827;DHT22;12094;50.822;4.376;2024-03-25T12:24:13;13.60;94.80
23827;DHT22;12094;50.822;4.376;2024-03-25T12:26:39;13.50;94.10
23827;DHT22;12094;50.822;4.376;2024-03-25T12:29:05;13.50;94.50
23827;DHT22;12094;50.822;4.376;2024-03-25T12:31:34;13.10;94.70
23827;DHT22;12094;50.822;4.376;2024-03-25T12:34:09;13.20;94.70
23827;DHT22;12094;50.822;4.376;2024-03-25T12:36:37;13.00;94.70
23827;DHT22;12094;50.822;4.376;2024-03-25T12:39:05;13.40;94.80
23827;DHT22;12094;50.822;4.376;2024-03-25T12:41:32;13.50;94.00
23827;DHT22;12094;50.822;4.376;2024-03-25T12:47:54;14.00;93.20
23827;DHT22;12094;50.822;4.376;2024-03-25T12:50:20;14.20;92.50
23827;DHT22;12094;50.822;4.376;2024-03-25T12:52:50;15.10;91.20
23827;DHT22;12094;50.822;4.376;2024-03-25T12:55:18;15.80;88.80
23827;DHT22;12094;50.822;4.376;2024-03-25T12:57:47;16.00;87.30
23827;DHT22;12094;50.822;4.376;2024-03-25T13:00:13;15.40;87.30
23827;DHT22;12094;50.822;4.376;2024-03-25T13:02:42;14.70;88.40
23827;DHT22;12094;50.822;4.376;2024-03-25T13:05:10;14.60;89.20
23827;DHT22;12094;50.822;4.376;2024-03-25T13:07:36;14.80;89.50
23827;DHT22;12094;50.822;4.376;2024-03-25T13:10:03;15.20;86.90
23827;DHT22;12094;50.822;4.376;2024-03-25T13:12:30;15.50;86.60
23827;DHT22;12094;50.822;4.376;2024-03-25T13:14:57;16.40;84.10
23827;DHT22;12094;50.822;4.376;2024-03-25T13:17:25;16.80;81.70
23827;DHT22;12094;50.822;4.376;2024-03-25T13:19:52;16.20;80.40
23827;DHT22;12094;50.822;4.376;2024-03-25T13:22:20;15.60;83.00
23827;DHT22;12094;50.822;4.376;2024-03-25T13:24:46;15.10;82.90
23827;DHT22;12094;50.822;4.376;2024-03-25T13:27:13;14.80;84.80
23827;DHT22;12094;50.822;4.376;2024-03-25T13:29:39;14.40;85.30
23827;DHT22;12094;50.822;4.376;2024-03-25T13:32:06;14.50;85.60
23827;DHT22;12094;50.822;4.376;2024-03-25T13:34:33;14.40;84.60
23827;DHT22;12094;50.822;4.376;2024-03-25T13:37:00;14.30;85.00
23827;DHT22;12094;50.822;4.376;2024-03-25T13:39:26;14.60;84.50
23827;DHT22;12094;50.822;4.376;2024-03-25T13:41:54;15.10;82.70
23827;DHT22;12094;50.822;4.376;2024-03-25T13:44:20;15.50;81.50
23827;DHT22;12094;50.822;4.376;2024-03-25T13:46:48;15.30;82.50
23827;DHT22;12094;50.822;4.376;2024-03-25T13:49:16;14.90;84.00
23827;DHT22;12094;50.822;4.376;2024-03-25T13:51:44;14.80;83.70
23827;DHT22;12094;50.822;4.376;2024-03-25T13:54:10;14.80;83.40
23827;DHT22;12094;50.822;4.376;2024-03-25T13:56:38;14.70;84.00
23827;DHT22;12094;50.822;4.376;2024-03-25T13:59:12;14.80;84.40
23827;DHT22;12094;50.822;4.376;2024-03-25T14:01:42;14.60;84.20
23827;DHT22;12094;50.822;4.376;2024-03-25T14:06:40;14.00;84.20
23827;DHT22;12094;50.822;4.376;2024-03-25T14:15:53;13.90;87.10
23827;DHT22;12094;50.822;4.376;2024-03-25T14:22:19;13.90;87.80
23827;DHT22;12094;50.822;4.376;2024-03-25T14:24:49;13.80;88.20
23827;DHT22;12094;50.822;4.376;2024-03-25T14:27:18;13.80;88.30
23827;DHT22;12094;50.822;4.376;2024-03-25T14:29:46;13.80;87.70
23827;DHT22;12094;50.822;4.376;2024-03-25T14:32:12;13.70;86.40
23827;DHT22;12094;50.822;4.376;2024-03-25T14:34:38;13.60;85.80
23827;DHT22;12094;50.822;4.376;2024-03-25T14:37:05;13.60;86.40
23827;DHT22;12094;50.822;4.376;2024-03-25T14:39:31;13.70;86.20
23827;DHT22;12094;50.822;4.376;2024-03-25T14:41:57;13.70;86.70
23827;DHT22;12094;50.822;4.376;2024-03-25T14:44:23;13.80;86.80
23827;DHT22;12094;50.822;4.376;2024-03-25T14:46:52;13.80;86.30
23827;DHT22;12094;50.822;4.376;2024-03-25T14:49:20;13.90;86.50
23827;DHT22;12094;50.822;4.376;2024-03-25T14:51:46;13.90;85.40
23827;DHT22;12094;50.822;4.376;2024-03-25T14:54:12;14.00;85.60
23827;DHT22;12094;50.822;4.376;2024-03-25T14:56:38;14.20;85.00
23827;DHT22;12094;50.822;4.376;2024-03-25T14:59:04;14.20;85.30
23827;DHT22;12094;50.822;4.376;2024-03-25T15:01:30;14.20;86.60
23827;DHT22;12094;50.822;4.376;2024-03-25T15:03:58;14.20;86.80
23827;DHT22;12094;50.822;4.376;2024-03-25T15:06:25;14.20;86.60
23827;DHT22;12094;50.822;4.376;2024-03-25T15:08:53;14.10;86.20
23827;DHT22;12094;50.822;4.376;2024-03-25T15:11:20;14.40;86.00
23827;DHT22;12094;50.822;4.376;2024-03-25T15:13:46;14.20;86.20
23827;DHT22;12094;50.822;4.376;2024-03-25T15:16:12;14.00;86.30
23827;DHT22;12094;50.822;4.376;2024-03-25T15:18:38;14.10;84.60
23827;DHT22;12094;50.822;4.376;2024-03-25T15:21:07;14.00;84.20
23827;DHT22;12094;50.822;4.376;2024-03-25T15:27:26;13.90;84.80
23827;DHT22;12094;50.822;4.376;2024-03-25T15:32:22;13.50;85.80
23827;DHT22;12094;50.822;4.376;2024-03-25T15:34:49;13.60;86.50
23827;DHT22;12094;50.822;4.376;2024-03-25T15:37:15;13.50;87.50
23827;DHT22;12094;50.822;4.376;2024-03-25T15:42:43;14.00;88.80
23827;DHT22;12094;50.822;4.376;2024-03-25T15:47:45;14.00;89.40
23827;DHT22;12094;50.822;4.376;2024-03-25T15:50:11;14.10;90.00
23827;DHT22;12094;50.822;4.376;2024-03-25T15:52:37;14.10;90.00
23827;DHT22;12094;50.822;4.376;2024-03-25T15:55:06;14.20;89.00
23827;DHT22;12094;50.822;4.376;2024-03-25T15:57:33;14.10;90.80
23827;DHT22;12094;50.822;4.376;2024-03-25T16:00:00;14.20;90.20
23827;DHT22;12094;50.822;4.376;2024-03-25T16:02:27;14.20;90.00
23827;DHT22;12094;50.822;4.376;2024-03-25T16:04:53;14.20;89.40
23827;DHT22;12094;50.822;4.376;2024-03-25T16:07:20;13.90;90.20
23827;DHT22;12094;50.822;4.376;2024-03-25T16:09:47;13.90;90.20
23827;DHT22;12094;50.822;4.376;2024-03-25T16:12:14;13.90;90.30
23827;DHT22;12094;50.822;4.376;2024-03-25T16:14:41;13.50;90.60
23827;DHT22;12094;50.822;4.376;2024-03-25T16:17:16;13.60;90.30
23827;DHT22;12094;50.822;4.376;2024-03-25T16:19:42;13.70;90.10
23827;DHT22;12094;50.822;4.376;2024-03-25T16:22:08;13.80;89.20
23827;DHT22;12094;50.822;4.376;2024-03-25T16:24:36;13.80;89.10
23827;DHT22;12094;50.822;4.376;2024-03-25T16:27:02;13.70;88.60
23827;DHT22;12094;50.822;4.376;2024-03-25T16:29:34;13.70;88.90
23827;DHT22;12094;50.822;4.376;2024-03-25T16:32:21;13.60;89.10
23827;DHT22;12094;50.822;4.376;2024-03-25T16:34:56;13.40;89.40
23827;DHT22;12094;50.822;4.376;2024-03-25T16:40:05;13.20;89.60
23827;DHT22;12094;50.822;4.376;2024-03-25T16:45:01;13.40;88.70
23827;DHT22;12094;50.822;4.376;2024-03-25T16:47:27;13.40;87.70
23827;DHT22;12094;50.822;4.376;2024-03-25T16:49:53;13.10;88.40
23827;DHT22;12094;50.822;4.376;2024-03-25T16:52:19;12.80;88.40
23827;DHT22;12094;50.822;4.376;2024-03-25T16:54:51;12.70;89.50
23827;DHT22;12094;50.822;4.376;2024-03-25T16:57:18;12.70;90.00
23827;DHT22;12094;50.822;4.376;2024-03-25T16:59:44;12.70;90.10
23827;DHT22;12094;50.822;4.376;2024-03-25T17:02:10;12.80;90.00
23827;DHT22;12094;50.822;4.376;2024-03-25T17:04:36;12.90;89.60
23827;DHT22;12094;50.822;4.376;2024-03-25T17:07:04;13.00;89.40
23827;DHT22;12094;50.822;4.376;2024-03-25T17:09:31;13.00;89.30
23827;DHT22;12094;50.822;4.376;2024-03-25T17:12:01;12.80;90.00
23827;DHT22;12094;50.822;4.376;2024-03-25T17:14:27;12.70;90.00
23827;DHT22;12094;50.822;4.376;2024-03-25T17:19:22;12.60;90.30
23827;DHT22;12094;50.822;4.376;2024-03-25T17:21:48;12.60;90.10
23827;DHT22;12094;50.822;4.376;2024-03-25T17:24:15;12.70;89.90
23827;DHT22;12094;50.822;4.376;2024-03-25T17:26:43;12.70;90.20
23827;DHT22;12094;50.822;4.376;2024-03-25T17:29:11;12.70;90.10
23827;DHT22;12094;50.822;4.376;2024-03-25T17:31:40;12.60;90.60
23827;DHT22;12094;50.822;4.376;2024-03-25T17:34:07;12.70;90.10
23827;DHT22;12094;50.822;4.376;2024-03-25T17:36:36;12.70;90.50
23827;DHT22;12094;50.822;4.376;2024-03-25T17:39:03;12.80;90.40
23827;DHT22;12094;50.822;4.376;2024-03-25T17:41:30;13.00;90.10
23827;DHT22;12094;50.822;4.376;2024-03-25T17:43:58;12.90;90.10
23827;DHT22;12094;50.822;4.376;2024-03-25T17:46:24;12.80;90.40